Time;durP1;ratioP1;P1;durP2;ratioP2;P2;SDS_P1;SDS_P2;PMS_P1;PMS_P2;Temp;Humidity;BMP_temperature;BMP_pressure;BME280_temperature;BME280_humidity;BME280_pressure;Samples;Min_cycle;Max_cycle;Signal;HPM_P1;HPM_P2
2021/03/29 00:01:04;;;;;;;6.53;3.33;;;;;;;11.69;55.08;101872.88;5002790;28;20204;-62
2021/03/29 00:03:30;;;;;;;6.87;3.30;;;;;;;11.69;55.15;101874.69;4997207;28;20232;-64
2021/03/29 00:05:56;;;;;;;7.63;3.17;;;;;;;11.69;54.92;101872.88;4997877;28;20227;-64
2021/03/29 00:08:27;;;;;;;9.53;3.53;;;;;;;11.70;54.91;101873.75;4995907;28;20199;-65
2021/03/29 00:10:55;;;;;;;9.23;3.40;;;;;;;11.69;55.00;101870.22;4995731;28;20307;-64
2021/03/29 00:13:22;;;;;;;7.00;3.37;;;;;;;11.69;54.97;101867.56;5000087;28;20200;-64
2021/03/29 00:15:51;;;;;;;12.00;4.07;;;;;;;11.68;55.18;101865.81;4996456;28;20720;-65
2021/03/29 00:18:18;;;;;;;11.13;3.53;;;;;;;11.67;55.22;101856.09;4999384;28;20209;-65
2021/03/29 00:20:51;;;;;;;10.97;3.37;;;;;;;11.67;55.18;101865.91;4998542;28;20258;-66
2021/03/29 00:23:17;;;;;;;10.63;3.37;;;;;;;11.66;55.17;101862.34;4997848;28;20220;-65
2021/03/29 00:25:44;;;;;;;9.57;3.37;;;;;;;11.65;55.14;101860.63;4992628;28;20627;-65
2021/03/29 00:28:10;;;;;;;10.37;3.33;;;;;;;11.63;55.35;101859.88;4994410;28;20215;-64
2021/03/29 00:30:38;;;;;;;7.10;3.67;;;;;;;11.61;55.48;101853.72;4999658;28;20672;-64
2021/03/29 00:33:06;;;;;;;6.83;3.27;;;;;;;11.59;55.44;101850.28;4991865;28;20214;-65
2021/03/29 00:35:34;;;;;;;7.20;3.40;;;;;;;11.58;55.46;101848.53;4994715;28;20787;-65
2021/03/29 00:38:02;;;;;;;7.63;3.47;;;;;;;11.58;55.49;101858.34;4995295;28;20302;-65
2021/03/29 00:40:28;;;;;;;9.80;4.23;;;;;;;11.57;55.70;101851.28;4993997;28;20205;-65
2021/03/29 00:42:57;;;;;;;10.13;4.37;;;;;;;11.57;55.44;101856.63;4998301;28;20228;-64
2021/03/29 00:45:23;;;;;;;9.00;3.10;;;;;;;11.55;55.63;101848.69;5005286;23;20705;-79
2021/03/29 00:47:50;;;;;;;11.83;4.37;;;;;;;11.57;55.56;101851.28;5047851;28;20217;-80
2021/03/29 00:50:28;;;;;;;9.80;3.60;;;;;;;11.56;55.65;101858.41;5048044;28;20206;-80
2021/03/29 00:52:55;;;;;;;9.00;3.43;;;;;;;11.56;55.62;101866.44;5035607;28;20218;-81
2021/03/29 00:55:22;;;;;;;8.93;3.70;;;;;;;11.56;55.67;101858.41;5029716;28;20202;-80
2021/03/29 00:57:50;;;;;;;11.40;4.30;;;;;;;11.56;55.75;101861.09;5029431;28;20650;-80
2021/03/29 01:00:19;;;;;;;9.97;4.10;;;;;;;11.54;55.87;101859.44;5025343;28;20945;-79
2021/03/29 01:02:46;;;;;;;11.00;4.10;;;;;;;11.53;55.77;101858.56;5028863;28;20240;-79
2021/03/29 01:05:15;;;;;;;7.73;3.57;;;;;;;11.52;55.86;101864.84;5032085;28;20218;-79
2021/03/29 01:07:44;;;;;;;8.47;3.60;;;;;;;11.50;55.89;101864.03;5027487;28;20238;-79
2021/03/29 01:10:11;;;;;;;12.07;4.67;;;;;;;11.48;55.96;101861.44;5028126;28;20206;-81
2021/03/29 01:12:38;;;;;;;6.53;3.83;;;;;;;11.46;56.05;101855.31;5028316;28;20222;-79
2021/03/29 01:15:06;;;;;;;8.30;4.47;;;;;;;11.46;56.00;101867.81;5031857;28;20290;-80
2021/03/29 01:17:35;;;;;;;8.43;3.40;;;;;;;11.44;56.14;101861.69;5032888;28;20211;-80
2021/03/29 01:20:11;;;;;;;9.47;3.97;;;;;;;11.43;56.17;101854.63;5030729;28;20208;-80
2021/03/29 01:22:42;;;;;;;7.67;4.03;;;;;;;11.42;56.05;101869.75;5030377;28;20252;-79
2021/03/29 01:25:13;;;;;;;10.07;4.00;;;;;;;11.43;55.81;101862.63;5032236;28;20198;-80
2021/03/29 01:27:44;;;;;;;9.63;4.07;;;;;;;11.41;56.31;101862.69;5034493;28;20668;-79
2021/03/29 01:30:11;;;;;;;8.63;4.33;;;;;;;11.41;56.50;101859.16;5034490;28;20245;-78
2021/03/29 01:32:39;;;;;;;13.40;4.43;;;;;;;11.42;56.57;101864.44;5029072;28;20222;-79
2021/03/29 01:35:11;;;;;;;8.70;4.70;;;;;;;11.41;56.35;101861.81;5031441;28;20668;-80
2021/03/29 01:37:40;;;;;;;7.17;3.93;;;;;;;11.39;56.48;101861.91;5028173;28;20199;-79
2021/03/29 01:40:07;;;;;;;9.07;4.17;;;;;;;11.39;56.29;101863.69;5026946;28;20661;-81
2021/03/29 01:42:34;;;;;;;9.67;4.33;;;;;;;11.38;56.77;101867.31;5032638;28;20226;-81
2021/03/29 01:45:02;;;;;;;10.40;4.63;;;;;;;11.36;56.75;101864.69;5027087;28;20194;-80
2021/03/29 01:47:28;;;;;;;8.80;4.03;;;;;;;11.36;56.95;101869.19;5026704;28;20217;-80
2021/03/29 01:49:55;;;;;;;11.20;4.60;;;;;;;11.36;56.87;101869.19;5032321;28;20240;-80
2021/03/29 01:52:21;;;;;;;11.33;4.30;;;;;;;11.35;57.13;101870.09;5027184;28;20310;-80
2021/03/29 01:54:48;;;;;;;10.40;4.40;;;;;;;11.32;57.02;101863.13;5030481;28;20202;-79
2021/03/29 01:57:14;;;;;;;8.77;3.60;;;;;;;11.31;57.20;101864.03;5028115;28;20669;-79
2021/03/29 01:59:41;;;;;;;12.13;4.20;;;;;;;11.30;57.35;101861.44;5029113;28;20656;-79
2021/03/29 02:02:08;;;;;;;7.83;3.97;;;;;;;11.29;57.45;101868.59;5031639;28;20592;-79
2021/03/29 02:04:35;;;;;;;7.07;3.87;;;;;;;11.28;57.68;101858.03;5028552;28;20217;-79
2021/03/29 02:07:03;;;;;;;10.93;4.43;;;;;;;11.26;57.76;101865.22;5023741;28;20221;-79
2021/03/29 02:09:30;;;;;;;11.90;4.50;;;;;;;11.24;57.55;101859.97;5019902;28;20674;-79
2021/03/29 02:11:56;;;;;;;7.23;3.77;;;;;;;11.23;57.81;101857.34;5018519;28;20230;-80
2021/03/29 02:14:27;;;;;;;7.83;3.97;;;;;;;11.21;57.76;101846.75;5018459;28;20198;-79
2021/03/29 02:16:55;;;;;;;11.93;4.83;;;;;;;11.20;57.74;101844.16;5019421;28;20191;-80
2021/03/29 02:19:23;;;;;;;10.70;3.80;;;;;;;11.20;57.80;101838.84;5018238;28;20210;-80
2021/03/29 02:21:50;;;;;;;8.63;4.33;;;;;;;11.19;57.77;101835.31;5018496;28;20223;-79
2021/03/29 02:24:17;;;;;;;11.63;4.50;;;;;;;11.18;57.42;101822.03;5018832;28;20675;-81
2021/03/29 02:26:44;;;;;;;8.67;4.50;;;;;;;11.18;57.23;101820.25;5018376;28;20204;-81
2021/03/29 02:29:11;;;;;;;8.70;3.73;;;;;;;11.18;57.43;101808.72;5019265;28;20211;-79
2021/03/29 02:31:38;;;;;;;10.53;3.77;;;;;;;11.16;57.34;101806.09;5018721;28;20214;-80
2021/03/29 02:34:06;;;;;;;9.03;3.53;;;;;;;11.18;57.04;101808.72;5018772;28;20202;-78
2021/03/29 02:36:33;;;;;;;7.00;3.60;;;;;;;11.14;56.53;101800.84;5019195;28;20666;-79
2021/03/29 02:38:59;;;;;;;7.90;4.17;;;;;;;11.14;56.64;101800.84;5019324;28;20207;-79
2021/03/29 02:41:29;;;;;;;8.57;3.90;;;;;;;11.14;56.45;101790.19;5018231;28;20215;-80
2021/03/29 02:43:56;;;;;;;7.97;3.47;;;;;;;11.13;56.19;101790.25;5019074;28;20233;-80
2021/03/29 02:46:25;;;;;;;8.77;3.43;;;;;;;11.11;56.00;101790.31;5018663;28;20618;-79
2021/03/29 02:48:55;;;;;;;7.23;3.23;;;;;;;11.10;55.82;101787.75;5019427;28;20203;-80
2021/03/29 02:51:23;;;;;;;8.67;3.33;;;;;;;11.09;55.82;101796.69;5018916;28;20191;-78
2021/03/29 02:53:52;;;;;;;8.23;3.53;;;;;;;11.08;55.75;101794.97;5019048;28;20207;-79
2021/03/29 02:56:20;;;;;;;8.93;3.17;;;;;;;11.08;55.92;101800.28;5023265;28;20206;-79
2021/03/29 02:58:54;;;;;;;7.90;2.93;;;;;;;11.07;55.48;101807.44;5022763;28;20267;-79
2021/03/29 03:01:23;;;;;;;7.03;3.13;;;;;;;11.07;55.29;101802.09;5022214;28;20206;-79
2021/03/29 03:03:52;;;;;;;7.57;3.07;;;;;;;11.08;54.97;101816.28;5022670;28;20580;-78
2021/03/29 03:06:22;;;;;;;6.87;3.13;;;;;;;11.05;54.90;101811.97;5022174;28;20213;-79
2021/03/29 03:08:48;;;;;;;9.97;3.57;;;;;;;11.05;55.07;101809.28;5022615;28;20207;-79
2021/03/29 03:11:16;;;;;;;8.90;3.27;;;;;;;11.04;54.57;101818.22;5022925;28;20215;-79
2021/03/29 03:13:44;;;;;;;9.27;3.00;;;;;;;11.03;54.93;101820.97;5022070;28;20749;-79
2021/03/29 03:16:10;;;;;;;6.10;2.70;;;;;;;11.01;54.84;101825.50;5023330;28;20203;-79
2021/03/29 03:18:37;;;;;;;6.43;2.63;;;;;;;11.01;54.91;101834.34;5022856;28;20230;-79
2021/03/29 03:21:04;;;;;;;8.57;2.80;;;;;;;10.99;54.56;101830.91;5022229;28;20290;-80
2021/03/29 03:23:30;;;;;;;7.40;2.80;;;;;;;11.00;54.77;101843.28;5022854;28;20234;-80
2021/03/29 03:25:57;;;;;;;7.90;2.93;;;;;;;11.00;54.36;101845.09;5022913;28;20210;-80
2021/03/29 03:28:26;;;;;;;8.10;2.90;;;;;;;10.99;54.29;101840.69;5022139;28;20210;-80
2021/03/29 03:30:54;;;;;;;7.60;2.87;;;;;;;10.96;54.50;101847.03;5022296;28;20683;-79
2021/03/29 03:33:22;;;;;;;12.77;3.20;;;;;;;10.97;54.57;101846.09;5022143;28;20246;-79
2021/03/29 03:35:50;;;;;;;8.43;2.97;;;;;;;10.94;54.37;101846.22;5022502;28;20289;-78
2021/03/29 03:38:21;;;;;;;8.77;2.57;;;;;;;10.94;54.32;101846.22;5022470;28;20199;-80
2021/03/29 03:40:50;;;;;;;5.47;2.67;;;;;;;10.92;54.39;101839.25;5022171;28;20664;-80
2021/03/29 03:43:19;;;;;;;8.77;3.33;;;;;;;10.91;54.37;101834.88;5021765;28;20231;-79
2021/03/29 03:45:50;;;;;;;7.80;3.20;;;;;;;10.89;54.68;101837.59;5021458;28;20352;-80
2021/03/29 03:48:18;;;;;;;7.23;2.80;;;;;;;10.88;54.06;101822.53;5021587;28;20211;-79
2021/03/29 03:50:46;;;;;;;5.77;2.37;;;;;;;10.89;54.68;101834.94;5022004;28;20203;-79
2021/03/29 03:53:14;;;;;;;8.13;2.87;;;;;;;10.89;54.42;101826.06;5022390;28;20654;-80
2021/03/29 03:55:41;;;;;;;7.83;2.77;;;;;;;10.89;54.12;101826.06;5022717;28;20637;-80
2021/03/29 03:58:08;;;;;;;6.30;3.00;;;;;;;10.90;54.39;101823.34;5022666;28;20240;-79
2021/03/29 04:00:35;;;;;;;8.23;2.63;;;;;;;10.91;54.35;101819.75;5021745;28;20209;-80
2021/03/29 04:03:02;;;;;;;9.20;3.00;;;;;;;10.92;54.27;101821.47;5021591;28;20235;-79
2021/03/29 04:05:29;;;;;;;10.17;2.63;;;;;;;10.95;54.27;101807.97;5021406;28;20207;-79
2021/03/29 04:07:57;;;;;;;5.27;2.83;;;;;;;10.97;54.15;101811.44;5021061;28;20263;-79
2021/03/29 04:10:34;;;;;;;5.73;2.60;;;;;;;10.97;54.03;101808.78;5021939;28;20214;-79
2021/03/29 04:13:00;;;;;;;5.73;2.70;;;;;;;10.98;53.94;101814.97;5022287;28;20286;-78
2021/03/29 04:15:27;;;;;;;7.00;2.90;;;;;;;11.00;54.02;101818.44;5022208;28;20618;-78
2021/03/29 04:17:53;;;;;;;7.83;2.77;;;;;;;11.01;53.80;101825.50;5022147;28;20220;-80
2021/03/29 04:20:20;;;;;;;7.70;2.47;;;;;;;11.01;53.74;101834.34;5022426;28;20291;-79
2021/03/29 04:22:46;;;;;;;6.17;2.50;;;;;;;11.02;53.69;101832.56;5022219;28;20242;-80
2021/03/29 04:25:14;;;;;;;7.90;2.57;;;;;;;11.03;53.41;101832.50;5022511;28;20657;-80
2021/03/29 04:27:40;;;;;;;8.73;3.27;;;;;;;11.05;53.44;101838.63;5021976;28;20229;-80
2021/03/29 04:30:10;;;;;;;9.93;2.87;;;;;;;11.06;53.16;101839.47;5022173;28;20207;-79
2021/03/29 04:32:36;;;;;;;7.27;2.80;;;;;;;11.05;53.43;101827.97;5021466;28;20234;-79
2021/03/29 04:35:03;;;;;;;9.13;3.10;;;;;;;11.05;53.68;101833.28;5022404;28;20215;-79
2021/03/29 04:37:30;;;;;;;8.87;2.87;;;;;;;11.06;53.07;101823.50;5021323;28;20211;-79
2021/03/29 04:39:57;;;;;;;9.90;3.10;;;;;;;11.04;53.66;101830.69;5021048;28;20199;-79
2021/03/29 04:42:23;;;;;;;8.90;3.13;;;;;;;11.02;53.26;101820.09;5020498;28;20227;-80
2021/03/29 04:44:49;;;;;;;7.80;2.77;;;;;;;11.03;53.46;101826.28;5020920;28;20203;-80
2021/03/29 04:47:16;;;;;;;6.40;2.57;;;;;;;11.01;53.36;101820.16;5021526;28;20218;-79
2021/03/29 04:49:43;;;;;;;8.67;2.87;;;;;;;11.01;53.66;101804.16;5020365;28;20207;-79
2021/03/29 04:52:10;;;;;;;9.20;3.40;;;;;;;10.99;53.45;101806.91;5020532;28;20597;-79
2021/03/29 04:54:38;;;;;;;7.30;2.60;;;;;;;11.00;53.57;101802.44;5020322;28;20203;-79
2021/03/29 04:57:05;;;;;;;7.43;2.43;;;;;;;10.99;53.87;101812.22;5019861;28;20206;-79
2021/03/29 04:59:31;;;;;;;5.37;2.73;;;;;;;10.98;53.56;101818.50;5020075;28;20203;-79
2021/03/29 05:01:58;;;;;;;7.87;2.53;;;;;;;10.98;53.61;101820.31;5019889;28;20257;-79
2021/03/29 05:04:24;;;;;;;7.30;2.40;;;;;;;10.99;53.64;101819.38;5018243;28;20231;-79
2021/03/29 05:06:51;;;;;;;8.53;2.43;;;;;;;11.01;53.35;101809.50;5018937;28;20211;-79
2021/03/29 05:09:17;;;;;;;8.37;2.73;;;;;;;10.99;53.79;101808.69;5018627;28;20203;-80
2021/03/29 05:11:49;;;;;;;8.27;2.80;;;;;;;10.98;53.79;101802.50;5018980;28;20314;-80
2021/03/29 05:14:15;;;;;;;7.07;2.73;;;;;;;11.00;53.22;101821.09;5018707;28;20184;-79
2021/03/29 05:16:42;;;;;;;5.83;2.10;;;;;;;11.04;53.73;101815.56;5018663;28;20293;-79
2021/03/29 05:19:09;;;;;;;7.53;2.43;;;;;;;11.08;53.41;101819.81;5018702;28;20250;-79
2021/03/29 05:21:37;;;;;;;6.67;2.50;;;;;;;11.11;53.38;101822.31;5018756;28;20330;-79
2021/03/29 05:24:06;;;;;;;6.27;2.67;;;;;;;11.14;53.43;101818.66;5018875;28;20227;-79
2021/03/29 05:26:36;;;;;;;6.43;2.40;;;;;;;11.14;53.29;101816.84;5016885;28;20218;-79
2021/03/29 05:29:04;;;;;;;8.07;2.10;;;;;;;11.20;53.25;101815.69;5017166;28;20309;-79
2021/03/29 05:31:34;;;;;;;5.70;2.60;;;;;;;11.21;53.24;101811.22;5016247;28;20233;-79
2021/03/29 05:34:00;;;;;;;6.43;2.67;;;;;;;11.23;53.26;101815.56;5017237;28;20210;-79
2021/03/29 05:36:26;;;;;;;9.53;2.50;;;;;;;11.25;53.07;101820.81;5015839;28;20207;-79
2021/03/29 05:38:54;;;;;;;7.37;2.40;;;;;;;11.27;53.41;101813.63;5017230;28;20210;-79
2021/03/29 05:41:20;;;;;;;6.47;2.23;;;;;;;11.29;52.82;101823.25;5017330;28;20230;-78
2021/03/29 05:43:47;;;;;;;5.97;2.33;;;;;;;11.30;53.13;101822.31;5017344;28;20237;-79
2021/03/29 05:46:15;;;;;;;6.50;2.30;;;;;;;11.33;53.03;101827.50;5016520;28;20222;-79
2021/03/29 05:48:41;;;;;;;5.10;2.37;;;;;;;11.35;52.69;101832.75;5018158;28;20290;-79
2021/03/29 05:51:07;;;;;;;7.37;2.20;;;;;;;11.36;52.73;101835.38;5017302;28;20274;-80
2021/03/29 05:53:34;;;;;;;5.57;2.33;;;;;;;11.37;52.84;101842.44;5016787;28;20639;-79
2021/03/29 05:56:01;;;;;;;7.03;2.70;;;;;;;11.39;52.84;101842.38;5016180;28;20238;-81
2021/03/29 05:58:35;;;;;;;8.03;2.03;;;;;;;11.40;52.78;101846.75;5016202;28;20796;-81
2021/03/29 06:01:02;;;;;;;4.70;2.23;;;;;;;11.43;52.78;101851.94;5016529;28;20225;-81
2021/03/29 06:03:31;;;;;;;6.30;2.23;;;;;;;11.44;52.46;101862.56;5016317;28;20237;-81
2021/03/29 06:05:59;;;;;;;8.47;2.53;;;;;;;11.47;52.69;101866.84;5016620;28;20206;-80
2021/03/29 06:08:27;;;;;;;5.50;2.17;;;;;;;11.46;52.54;101865.16;5017787;28;20207;-80
2021/03/29 06:10:54;;;;;;;7.30;2.57;;;;;;;11.49;52.53;101855.16;5017053;28;20230;-80
2021/03/29 06:13:26;;;;;;;5.40;2.40;;;;;;;11.50;52.53;101856.03;5016870;28;20234;-80
2021/03/29 06:16:19;;;;;;;6.17;2.80;;;;;;;11.52;52.33;101859.50;5016957;28;20233;-79
2021/03/29 06:18:57;;;;;;;6.93;2.20;;;;;;;11.54;52.46;101862.09;5016523;28;20237;-80
2021/03/29 06:21:28;;;;;;;6.07;2.33;;;;;;;11.55;52.23;101859.34;5016773;28;20205;-79
2021/03/29 06:23:59;;;;;;;7.80;2.30;;;;;;;11.58;52.29;101863.69;5017099;28;20227;-80
2021/03/29 06:26:28;;;;;;;6.13;2.33;;;;;;;11.59;52.42;101863.63;5032118;28;20257;-80
2021/03/29 06:28:54;;;;;;;6.07;2.70;;;;;;;11.61;52.50;101856.41;5037103;28;20290;-80
2021/03/29 06:31:25;;;;;;;9.77;2.80;;;;;;;11.63;52.69;101856.34;5041516;28;20237;-80
2021/03/29 06:33:53;;;;;;;5.97;2.40;;;;;;;11.63;52.69;101846.53;5036740;28;20196;-80
2021/03/29 06:36:28;;;;;;;5.93;2.63;;;;;;;11.64;52.85;101866.94;5035513;28;20238;-80
2021/03/29 06:38:54;;;;;;;6.97;2.23;;;;;;;11.66;52.64;101873.03;5039117;28;20209;-79
2021/03/29 06:41:25;;;;;;;7.80;2.37;;;;;;;11.68;52.53;101865.81;5035853;28;20211;-79
2021/03/29 06:43:51;;;;;;;6.73;2.10;;;;;;;11.72;52.40;101869.22;5040188;28;20332;-79
2021/03/29 06:46:22;;;;;;;7.57;2.43;;;;;;;11.75;52.37;101871.75;5036122;28;20211;-78
2021/03/29 06:48:49;;;;;;;5.60;1.80;;;;;;;11.78;52.24;101888.50;5037625;28;20641;-80
2021/03/29 06:51:18;;;;;;;6.47;2.30;;;;;;;11.81;52.76;101888.38;5043466;28;20244;-80
2021/03/29 06:53:46;;;;;;;7.23;2.23;;;;;;;11.86;52.41;101895.25;5045643;28;20218;-79
2021/03/29 06:56:27;;;;;;;4.87;2.37;;;;;;;11.90;52.25;101891.50;5039826;28;20264;-78
2021/03/29 06:58:55;;;;;;;7.87;2.67;;;;;;;11.95;52.18;101892.16;5039805;28;20204;-78
2021/03/29 07:01:23;;;;;;;10.30;2.40;;;;;;;11.98;52.26;101879.53;5039642;28;20656;-80
2021/03/29 07:03:50;;;;;;;10.83;2.43;;;;;;;12.04;52.14;101881.88;5038667;28;20602;-79
2021/03/29 07:06:23;;;;;;;8.37;2.47;;;;;;;12.10;52.41;101888.72;5041925;28;20241;-80
2021/03/29 07:08:49;;;;;;;6.87;2.20;;;;;;;12.16;51.80;101883.06;5041505;28;20196;-78
2021/03/29 07:11:19;;;;;;;4.77;2.07;;;;;;;12.20;51.91;101873.06;5039623;28;20574;-79
2021/03/29 07:13:45;;;;;;;4.73;2.27;;;;;;;12.23;52.03;101873.78;5039397;28;20220;-79
2021/03/29 07:16:12;;;;;;;7.03;2.10;;;;;;;12.28;51.69;101873.56;5039866;28;20323;-80
2021/03/29 07:18:42;;;;;;;6.93;2.60;;;;;;;12.30;51.93;101880.56;5039491;28;20202;-79
2021/03/29 07:21:14;;;;;;;7.80;2.40;;;;;;;12.34;51.90;101892.84;5041247;28;20324;-79
2021/03/29 07:23:44;;;;;;;4.43;1.90;;;;;;;12.40;51.63;101892.50;5041266;28;20256;-80
2021/03/29 07:26:37;;;;;;;5.47;2.20;;;;;;;12.44;51.62;101894.06;5041004;28;20250;-80
2021/03/29 07:29:18;;;;;;;6.03;2.33;;;;;;;12.48;51.57;101895.66;5025638;28;20196;-81
2021/03/29 07:31:47;;;;;;;3.80;2.67;;;;;;;12.50;51.35;101888.44;5039818;28;20636;-81
2021/03/29 07:34:13;;;;;;;8.30;2.40;;;;;;;12.54;51.44;101897.13;5038964;28;20203;-80
2021/03/29 07:36:45;;;;;;;5.10;2.33;;;;;;;12.55;51.25;101900.66;5038965;28;20206;-79
2021/03/29 07:39:19;;;;;;;5.23;2.10;;;;;;;12.57;51.56;101896.97;5039431;28;20204;-81
2021/03/29 07:41:45;;;;;;;8.77;2.47;;;;;;;12.62;51.54;101897.59;5039310;28;20642;-81
2021/03/29 07:44:14;;;;;;;4.77;2.10;;;;;;;12.65;51.29;101894.78;5039208;28;20232;-81
2021/03/29 07:46:41;;;;;;;8.43;2.30;;;;;;;12.73;51.26;101892.56;5038372;28;20230;-80
2021/03/29 07:49:41;;;;;;;3.73;1.90;;;;;;;12.85;51.51;101896.41;5038825;28;20211;-80
2021/03/29 07:52:34;;;;;;;6.43;1.83;;;;;;;13.03;51.53;101894.56;5018376;28;20222;-81
2021/03/29 07:55:04;;;;;;;8.40;2.33;;;;;;;13.20;51.16;101889.19;5018398;28;20257;-81
2021/03/29 07:58:02;;;;;;;9.70;2.70;;;;;;;13.38;51.04;101896.22;5019070;28;20210;-79
2021/03/29 08:00:49;;;;;;;9.60;2.80;;;;;;;13.50;50.39;101886.63;5017649;28;20207;-79
2021/03/29 08:03:59;;;;;;;6.17;1.90;;;;;;;13.60;49.95;101882.50;5017297;28;20226;-80
2021/03/29 08:06:42;;;;;;;10.27;2.07;;;;;;;13.67;50.17;101885.66;5017582;28;20191;-80
2021/03/29 08:09:11;;;;;;;5.67;2.10;;;;;;;13.75;49.76;101886.13;5017824;28;20193;-80
2021/03/29 08:11:56;;;;;;;4.73;2.00;;;;;;;13.84;49.56;101880.22;5017533;28;20265;-79
2021/03/29 08:14:41;;;;;;;7.20;1.70;;;;;;;13.96;49.60;101889.38;5017244;28;20294;-80
2021/03/29 08:17:46;;;;;;;6.10;2.70;;;;;;;14.09;49.65;101896.59;5017707;28;20191;-78
2021/03/29 08:20:43;;;;;;;7.33;2.17;;;;;;;14.24;49.67;101897.53;5017664;28;20195;-80
2021/03/29 08:23:32;;;;;;;7.60;2.03;;;;;;;14.39;49.21;101896.59;5016656;28;20234;-79
2021/03/29 08:26:26;;;;;;;6.43;2.03;;;;;;;14.52;49.27;101892.25;5017223;28;20207;-80
2021/03/29 08:29:31;;;;;;;5.87;1.93;;;;;;;14.69;49.00;101896.59;5017019;28;20202;-79
2021/03/29 08:32:18;;;;;;;7.27;2.30;;;;;;;14.81;49.03;101909.28;5017998;28;20230;-80
2021/03/29 08:34:58;;;;;;;6.73;2.47;;;;;;;14.93;48.60;101904.97;5017421;28;20183;-81
2021/03/29 08:37:27;;;;;;;9.20;2.63;;;;;;;15.05;48.76;101912.25;5017386;28;20213;-81
2021/03/29 08:39:55;;;;;;;5.67;2.03;;;;;;;15.19;48.18;101906.94;5017715;28;20213;-81
2021/03/29 08:42:24;;;;;;;6.10;1.97;;;;;;;15.29;47.59;101918.78;5017324;28;20321;-80
2021/03/29 08:44:52;;;;;;;5.23;1.97;;;;;;;15.37;47.29;101904.91;5017088;28;20227;-80
2021/03/29 08:47:20;;;;;;;4.67;2.00;;;;;;;15.43;47.19;101920.59;5017407;28;20254;-79
2021/03/29 08:49:50;;;;;;;6.73;2.10;;;;;;;15.52;47.26;101913.78;5016403;28;20211;-80
2021/03/29 08:52:16;;;;;;;3.87;2.10;;;;;;;15.59;47.27;101909.78;5016369;28;20226;-80
2021/03/29 08:54:57;;;;;;;5.40;2.40;;;;;;;15.70;47.46;101926.06;5016405;28;20207;-80
2021/03/29 08:57:25;;;;;;;6.27;2.23;;;;;;;15.82;47.11;101906.47;5017066;28;20191;-80
2021/03/29 08:59:55;;;;;;;4.10;2.10;;;;;;;15.91;46.36;101913.94;5017117;28;20206;-81
2021/03/29 09:02:21;;;;;;;5.53;1.90;;;;;;;16.02;46.24;101923.09;5017577;28;20238;-81
2021/03/29 09:04:51;;;;;;;6.93;2.17;;;;;;;16.09;45.99;101925.28;5016549;28;20365;-81
2021/03/29 09:07:17;;;;;;;7.70;2.03;;;;;;;16.18;45.38;101918.44;5017137;28;20721;-81
2021/03/29 09:09:45;;;;;;;5.67;1.87;;;;;;;16.22;45.16;101914.59;5017049;28;20217;-81
2021/03/29 09:12:21;;;;;;;5.50;1.93;;;;;;;16.28;45.01;101923.09;5016506;28;20230;-78
2021/03/29 09:14:48;;;;;;;4.90;1.73;;;;;;;16.34;44.67;101913.75;5016782;28;20187;-78
2021/03/29 09:17:22;;;;;;;4.43;1.80;;;;;;;16.43;44.59;101918.53;5016813;28;20203;-78
2021/03/29 09:19:48;;;;;;;4.90;1.73;;;;;;;16.50;44.56;101916.25;5016066;28;20187;-78
2021/03/29 09:22:27;;;;;;;5.47;2.30;;;;;;;16.59;44.26;101911.13;5014367;28;20233;-78
2021/03/29 09:24:53;;;;;;;5.63;1.80;;;;;;;16.70;43.73;101923.84;5014841;28;20665;-80
2021/03/29 09:27:25;;;;;;;4.00;1.80;;;;;;;16.78;43.72;101921.50;5015624;28;20293;-80
2021/03/29 09:29:51;;;;;;;3.60;1.80;;;;;;;16.87;43.25;101930.75;5016067;28;20248;-80
2021/03/29 09:32:19;;;;;;;4.43;1.77;;;;;;;16.96;43.43;101925.63;5046826;28;20648;-81
2021/03/29 09:34:50;;;;;;;4.23;1.67;;;;;;;17.02;43.07;101929.69;5054325;28;20244;-80
2021/03/29 09:37:21;;;;;;;5.93;1.93;;;;;;;17.07;43.16;101922.16;5054150;28;20625;-81
2021/03/29 09:39:48;;;;;;;4.77;2.20;;;;;;;17.15;43.02;101927.88;5054814;28;20715;-82
2021/03/29 09:42:16;;;;;;;7.20;2.17;;;;;;;17.21;42.46;101924.72;5054365;28;20712;-81
2021/03/29 09:44:43;;;;;;;6.10;1.97;;;;;;;17.27;42.26;101923.44;5054826;28;20233;-81
2021/03/29 09:47:09;;;;;;;6.13;2.10;;;;;;;17.34;42.35;101928.28;5054589;28;20218;-80
2021/03/29 09:49:49;;;;;;;4.27;2.23;;;;;;;17.42;42.56;101925.03;5055674;28;20224;-79
2021/03/29 09:52:15;;;;;;;6.63;2.00;;;;;;;17.52;42.24;101933.31;5056245;28;20312;-81
2021/03/29 09:54:46;;;;;;;3.90;1.50;;;;;;;17.61;41.73;101932.66;5055182;28;20588;-80
2021/03/29 09:57:20;;;;;;;5.07;2.00;;;;;;;17.65;41.29;101940.44;5054869;28;20227;-79
2021/03/29 09:59:46;;;;;;;4.77;1.80;;;;;;;17.69;41.14;101938.38;5054397;28;20190;-80
2021/03/29 10:02:15;;;;;;;5.77;2.10;;;;;;;17.74;41.24;101944.28;5054212;28;20241;-80
2021/03/29 10:04:42;;;;;;;4.57;2.23;;;;;;;17.80;40.71;101934.91;5054251;28;20232;-80
2021/03/29 10:07:14;;;;;;;5.53;2.43;;;;;;;17.86;40.67;101939.84;5054822;28;20206;-81
2021/03/29 10:09:44;;;;;;;4.27;1.53;;;;;;;17.90;40.32;101933.25;5055679;28;20209;-82
2021/03/29 10:12:21;;;;;;;9.20;2.50;;;;;;;17.98;39.77;101923.63;5056628;28;20247;-82
2021/03/29 10:14:48;;;;;;;4.23;1.97;;;;;;;18.01;39.26;101923.41;5056807;28;20560;-81
2021/03/29 10:17:15;;;;;;;4.80;1.97;;;;;;;18.09;39.22;101924.66;5056256;28;20208;-81
2021/03/29 10:19:41;;;;;;;5.17;1.80;;;;;;;18.12;38.81;101924.41;5055248;28;20204;-81
2021/03/29 10:22:11;;;;;;;5.30;1.93;;;;;;;18.13;38.81;101926.13;5055640;28;20272;-81
2021/03/29 10:24:56;;;;;;;4.97;1.70;;;;;;;18.15;38.91;101918.81;5056153;28;20220;-80
2021/03/29 10:27:23;;;;;;;4.30;1.90;;;;;;;18.19;38.72;101909.50;5056409;28;20195;-81
2021/03/29 10:29:49;;;;;;;6.20;2.20;;;;;;;18.22;38.09;101918.25;5054884;28;20208;-79
2021/03/29 10:32:17;;;;;;;6.13;1.90;;;;;;;18.26;37.60;101921.56;5054210;28;20711;-78
2021/03/29 10:34:45;;;;;;;3.97;1.90;;;;;;;18.29;37.56;101929.41;5053784;28;20235;-80
2021/03/29 10:37:20;;;;;;;6.03;1.87;;;;;;;18.33;37.40;101923.66;5054373;28;20543;-80
2021/03/29 10:39:47;;;;;;;3.50;1.60;;;;;;;18.37;36.98;101927.00;5053986;28;20818;-80
2021/03/29 10:42:14;;;;;;;6.30;2.33;;;;;;;18.42;36.70;101923.97;5055452;28;20226;-83
2021/03/29 10:44:41;;;;;;;4.50;1.60;;;;;;;18.44;36.16;101917.47;5055239;28;20701;-80
2021/03/29 10:47:07;;;;;;;5.77;2.07;;;;;;;18.47;36.17;101916.34;5055258;28;20250;-80
2021/03/29 10:49:33;;;;;;;3.87;1.60;;;;;;;18.50;35.74;101913.44;5054443;28;20226;-82
2021/03/29 10:51:59;;;;;;;3.67;1.80;;;;;;;18.50;35.58;101916.97;5055040;28;20263;-79
2021/03/29 10:54:25;;;;;;;4.27;1.60;;;;;;;18.53;35.45;101919.47;5054631;28;20202;-81
2021/03/29 10:56:52;;;;;;;5.30;1.90;;;;;;;18.58;35.43;101919.97;5055243;28;20272;-81
2021/03/29 10:59:18;;;;;;;4.20;1.70;;;;;;;18.64;35.41;101937.53;5054865;28;20223;-81
2021/03/29 11:01:44;;;;;;;5.07;1.73;;;;;;;18.71;35.33;101925.31;5048428;28;20284;-78
2021/03/29 11:04:10;;;;;;;3.93;1.63;;;;;;;18.75;35.02;101926.78;5035043;28;20692;-78
2021/03/29 11:06:36;;;;;;;4.00;1.67;;;;;;;18.78;34.65;101923.00;5034210;28;20263;-78
2021/03/29 11:09:03;;;;;;;6.40;2.00;;;;;;;18.79;34.32;101933.69;5034762;28;20206;-78
2021/03/29 11:11:29;;;;;;;4.27;1.63;;;;;;;18.81;34.54;101928.16;5035425;28;20757;-79
2021/03/29 11:13:56;;;;;;;5.30;1.97;;;;;;;18.84;34.86;101928.75;5034168;28;20663;-79
2021/03/29 11:16:22;;;;;;;5.33;1.80;;;;;;;18.92;35.01;101928.19;5036726;28;20203;-78
2021/03/29 11:18:49;;;;;;;4.23;1.67;;;;;;;19.00;34.71;101937.38;5038976;28;20205;-81
2021/03/29 11:21:15;;;;;;;4.40;1.77;;;;;;;19.08;34.64;101932.25;5037966;28;20208;-77
2021/03/29 11:23:41;;;;;;;5.93;1.73;;;;;;;19.17;34.43;101941.44;5038005;28;20670;-80
2021/03/29 11:26:07;;;;;;;5.73;1.80;;;;;;;19.25;34.39;101938.16;5037232;28;20207;-83
2021/03/29 11:28:33;;;;;;;5.33;1.90;;;;;;;19.32;34.01;101934.84;5037511;28;20212;-78
2021/03/29 11:31:00;;;;;;;5.73;1.57;;;;;;;19.40;34.04;101940.50;5036709;28;20214;-77
2021/03/29 11:36:07;;;;;;;4.27;1.70;;;;;;;19.51;33.91;101944.22;5035785;28;20214;-79
2021/03/29 11:38:37;;;;;;;3.90;1.80;;;;;;;19.56;33.79;101936.59;5036724;28;20207;-78